createdAt,value
2023-03-21T00:02:34.001Z,45.69
2023-03-21T00:05:34.511Z,45.8
2023-03-21T00:08:34.120Z,46.03
2023-03-21T00:11:34.164Z,46.12
2023-03-21T00:14:33.988Z,46.09
2023-03-21T00:16:35.093Z,46.02
2023-03-21T00:19:34.729Z,46.16
2023-03-21T00:22:33.996Z,45.99
2023-03-21T00:24:34.413Z,46.23
2023-03-21T00:27:50.271Z,46.4
2023-03-21T00:29:34.769Z,46.45
2023-03-21T00:32:39.722Z,46.54
2023-03-21T00:35:57.704Z,46.57
2023-03-21T00:37:33.979Z,46.84
2023-03-21T00:39:34.086Z,46.87
2023-03-21T00:41:42.343Z,46.89
2023-03-21T00:44:34.031Z,46.86
2023-03-21T00:47:34.003Z,46.63
2023-03-21T00:49:34.177Z,46.62
2023-03-21T00:51:34.269Z,46.64
2023-03-21T00:54:34.718Z,46.45
2023-03-21T00:57:38.938Z,46.65
2023-03-21T00:59:34.017Z,46.65
2023-03-21T01:01:34.809Z,46.39
2023-03-21T01:04:34.011Z,46.14
2023-03-21T01:07:33.973Z,45.98
2023-03-21T01:09:33.986Z,46.02
2023-03-21T01:12:34.247Z,46.13
2023-03-21T01:15:33.985Z,46.12
2023-03-21T01:18:34.555Z,46.18
2023-03-21T01:20:34.784Z,46.17
2023-03-21T01:23:33.953Z,46.47
2023-03-21T01:25:33.974Z,46.61
2023-03-21T01:27:34.445Z,46.49
2023-03-21T01:29:34.702Z,46.71
2023-03-21T01:33:34.077Z,46.95
2023-03-21T01:35:45.035Z,46.95
2023-03-21T01:38:34.010Z,47.17
2023-03-21T01:40:34.065Z,47.22
2023-03-21T01:42:34.543Z,47.2
2023-03-21T01:45:34.066Z,47.14
2023-03-21T01:48:34.019Z,47.5
2023-03-21T01:50:34.619Z,47.43
2023-03-21T01:53:34.023Z,47.03
2023-03-21T01:55:34.872Z,47.07
2023-03-21T01:58:34.039Z,46.76
2023-03-21T02:00:34.849Z,46.79
2023-03-21T02:03:36.201Z,46.81
2023-03-21T02:05:35.322Z,46.73
2023-03-21T02:07:34.379Z,46.7
2023-03-21T02:09:34.733Z,46.82
2023-03-21T02:12:37.151Z,46.84
2023-03-21T02:15:35.153Z,46.8
2023-03-21T02:18:33.997Z,46.95
2023-03-21T02:20:34.848Z,46.96
2023-03-21T02:23:33.986Z,46.95
2023-03-21T02:26:41.606Z,47
2023-03-21T02:29:34.002Z,47.15
2023-03-21T02:32:37.658Z,47.25
2023-03-21T02:34:33.999Z,47.19
2023-03-21T02:36:34.417Z,47.33
2023-03-21T02:38:34.873Z,47.48
2023-03-21T02:41:39.997Z,47.59
2023-03-21T02:43:34.161Z,47.61
2023-03-21T02:46:42.867Z,47.72
2023-03-21T02:48:44.683Z,47.64
2023-03-21T02:51:33.979Z,47.78
2023-03-21T02:53:34.776Z,47.87
2023-03-21T02:56:34.278Z,48.05
2023-03-21T02:59:35.718Z,48.28
2023-03-21T03:01:34.424Z,48.38
2023-03-21T03:04:34.014Z,48.42
2023-03-21T03:06:34.188Z,48.48
2023-03-21T03:09:33.995Z,48.4
2023-03-21T03:11:34.042Z,48.42
2023-03-21T03:13:34.006Z,48.81
2023-03-21T03:16:34.002Z,48.85
2023-03-21T03:18:34.121Z,48.87
2023-03-21T03:21:34.217Z,48.93
2023-03-21T03:23:34.715Z,49.02
2023-03-21T03:26:34.376Z,49.27
2023-03-21T03:29:34.018Z,49.27
2023-03-21T03:32:34.571Z,49.46
2023-03-21T03:35:34.809Z,49.79
2023-03-21T03:38:34.523Z,49.63
2023-03-21T03:40:35.904Z,49.66
2023-03-21T03:42:34.593Z,49.51
2023-03-21T03:45:34.569Z,49.66
2023-03-21T03:48:34.136Z,49.56
2023-03-21T03:50:34.369Z,49.62
2023-03-21T03:53:34.440Z,49.72
2023-03-21T03:56:34.022Z,49.65
2023-03-21T03:59:34.530Z,49.87
2023-03-21T04:02:34.191Z,49.91
2023-03-21T04:05:34.034Z,49.85
2023-03-21T04:07:34.793Z,50.05
2023-03-21T04:10:34.025Z,50.08
2023-03-21T04:13:34.511Z,50.16
2023-03-21T04:16:35.808Z,50.04
2023-03-21T04:19:34.927Z,49.96
2023-03-21T04:22:34.005Z,49.98
2023-03-21T04:24:34.092Z,50.22
2023-03-21T04:27:34.005Z,50.34
2023-03-21T04:30:34.670Z,50.48
2023-03-21T04:33:34.007Z,50.57
2023-03-21T04:35:35.386Z,50.23
2023-03-21T04:38:34.057Z,50.26
2023-03-21T04:41:33.971Z,50.34
2023-03-21T04:43:34.658Z,50.23
2023-03-21T04:46:34.323Z,50.59
2023-03-21T04:49:34.547Z,50.46
2023-03-21T04:51:34.558Z,50.48
2023-03-21T04:53:34.797Z,50.47
2023-03-21T04:56:34.198Z,50.58
2023-03-21T04:58:34.410Z,50.58
2023-03-21T05:00:34.546Z,50.52
2023-03-21T05:02:34.729Z,50.44
2023-03-21T05:05:34.007Z,50.58
2023-03-21T05:07:34.022Z,50.65
2023-03-21T05:10:35.632Z,50.37
2023-03-21T05:13:34.411Z,50.1
2023-03-21T05:16:34.844Z,49.81
2023-03-21T05:19:34.052Z,49.6
2023-03-21T05:21:34.841Z,49.81
2023-03-21T05:24:34.024Z,49.7
2023-03-21T05:26:34.622Z,49.65
2023-03-21T05:29:34.483Z,49.38
2023-03-21T05:31:34.658Z,49.65
2023-03-21T05:34:34.025Z,49.39
2023-03-21T05:36:34.139Z,49.31
2023-03-21T05:38:34.326Z,49.31
2023-03-21T05:41:34.563Z,49.21
2023-03-21T05:44:34.153Z,49.46
2023-03-21T05:46:34.492Z,49.22
2023-03-21T05:49:34.642Z,49.19
2023-03-21T05:52:34.859Z,49.2
2023-03-21T05:55:34.027Z,49.02
2023-03-21T05:57:34.064Z,49.06
2023-03-21T06:00:34.355Z,49.16
2023-03-21T06:03:34.743Z,49.45
2023-03-21T06:05:34.792Z,49.36
2023-03-21T06:08:34.043Z,49.74
2023-03-21T06:10:34.626Z,50.14
2023-03-21T06:13:34.091Z,50.08
2023-03-21T06:16:34.039Z,50.05
2023-03-21T06:19:34.051Z,49.83
2023-03-21T06:22:34.098Z,49.58
2023-03-21T06:24:34.844Z,49.54
2023-03-21T06:27:34.013Z,49.51
2023-03-21T06:29:34.343Z,49.29
2023-03-21T06:32:34.036Z,49.35
2023-03-21T06:34:35.013Z,49.7
2023-03-21T06:37:34.010Z,49.74
2023-03-21T06:39:34.254Z,49.85
2023-03-21T06:42:34.014Z,49.51
2023-03-21T06:44:34.660Z,49.52
2023-03-21T06:47:34.276Z,49.34
2023-03-21T06:50:34.148Z,49.56
2023-03-21T06:53:36.110Z,49.74
2023-03-21T06:56:34.021Z,50.22
2023-03-21T06:58:33.999Z,50.07
2023-03-21T07:00:34.033Z,50.19
2023-03-21T07:02:34.079Z,50.12
2023-03-21T07:04:34.842Z,49.89
2023-03-21T07:07:33.998Z,50.05
2023-03-21T07:10:34.929Z,50.16
2023-03-21T07:13:33.982Z,50.27
2023-03-21T07:15:34.825Z,50.37
2023-03-21T07:18:34.236Z,50.29
2023-03-21T07:21:34.057Z,50.46
2023-03-21T07:24:34.826Z,50.54
2023-03-21T07:27:34.015Z,50.79
2023-03-21T07:29:34.343Z,50.54
2023-03-21T07:32:34.047Z,50.54
2023-03-21T07:34:34.044Z,50.58
2023-03-21T07:36:34.530Z,50.84
2023-03-21T07:39:34.939Z,50.74
2023-03-21T07:42:34.394Z,50.69
2023-03-21T07:45:34.035Z,50.54
2023-03-21T07:48:33.997Z,50.56
2023-03-21T07:50:34.036Z,49.89
2023-03-21T07:52:34.127Z,49.55
2023-03-21T07:54:34.145Z,50.1
2023-03-21T07:57:34.794Z,49.95
2023-03-21T08:00:34.954Z,49.29
2023-03-21T08:03:34.138Z,48.83
2023-03-21T08:05:34.037Z,49.04
2023-03-21T08:08:34.574Z,49
2023-03-21T08:11:34.020Z,48.89
2023-03-21T08:13:34.025Z,49.34
2023-03-21T08:15:34.870Z,49.65
2023-03-21T08:18:33.977Z,49.64
2023-03-21T08:20:34.212Z,50.18
2023-03-21T08:23:34.208Z,50.16
2023-03-21T08:25:34.860Z,50.95
2023-03-21T08:28:34.435Z,50.22
2023-03-21T08:31:34.337Z,51.95
2023-03-21T08:34:35.296Z,50.9
2023-03-21T08:36:34.618Z,51.1
2023-03-21T08:39:34.432Z,49.95
2023-03-21T08:42:34.018Z,48.71
2023-03-21T08:44:34.349Z,48.42
2023-03-21T08:47:34.416Z,48.14
2023-03-21T08:50:34.560Z,48.96
2023-03-21T08:53:34.780Z,48.73
2023-03-21T08:56:35.770Z,48.57
2023-03-21T08:59:34.698Z,48.79
2023-03-21T09:02:34.641Z,48.97
2023-03-21T09:05:34.033Z,49.1
2023-03-21T09:08:33.994Z,48.11
2023-03-21T09:10:34.064Z,47.91
2023-03-21T09:13:34.065Z,48.92
2023-03-21T09:15:34.552Z,47.88
2023-03-21T09:18:34.020Z,47.59
2023-03-21T09:20:34.133Z,48.24
2023-03-21T09:23:34.886Z,48.66
2023-03-21T09:26:34.514Z,48.1
2023-03-21T09:29:35.084Z,47.29
2023-03-21T09:32:34.468Z,50.01
2023-03-21T09:35:34.103Z,48.35
2023-03-21T09:38:28.759Z,48.92
2023-03-21T09:40:34.339Z,48.3
2023-03-21T09:43:34.022Z,50.45
2023-03-21T09:46:34.869Z,49.59
2023-03-21T09:49:34.169Z,49.1
2023-03-21T09:52:34.080Z,47.46
2023-03-21T09:55:34.419Z,49.31
2023-03-21T09:58:34.011Z,48.77
2023-03-21T10:00:34.817Z,49.89
2023-03-21T10:03:34.039Z,49.75
2023-03-21T10:06:34.550Z,49.53
2023-03-21T10:09:34.016Z,49.32
2023-03-21T10:12:34.684Z,49.64
2023-03-21T10:14:34.526Z,49.9
2023-03-21T10:17:34.023Z,50.18
2023-03-21T10:20:34.041Z,50.06
2023-03-21T10:22:34.893Z,49.03
2023-03-21T10:25:34.484Z,50.08
2023-03-21T10:28:46.287Z,50.55
2023-03-21T10:31:34.335Z,50.59
2023-03-21T10:33:34.784Z,50.4
2023-03-21T10:36:34.028Z,49.76
2023-03-21T10:38:34.045Z,49.37
2023-03-21T10:40:35.043Z,49.79
2023-03-21T10:42:34.053Z,49.02
2023-03-21T10:45:34.065Z,50.26
2023-03-21T10:47:34.535Z,51.4
2023-03-21T10:49:40.504Z,51.08
2023-03-21T10:52:34.107Z,50.1
2023-03-21T10:55:34.136Z,49.26
2023-03-21T10:58:34.820Z,48.85
2023-03-21T11:01:34.713Z,49.92
2023-03-21T11:04:34.066Z,50.17
2023-03-21T11:06:34.723Z,48.58
2023-03-21T11:08:35.043Z,49.6
2023-03-21T11:11:34.081Z,48.43
2023-03-21T11:14:34.084Z,48.79
2023-03-21T11:17:34.004Z,48.86
2023-03-21T11:19:34.105Z,47.46
2023-03-21T11:22:34.070Z,48.26
2023-03-21T11:24:34.103Z,47.63
2023-03-21T11:26:34.262Z,48.16
2023-03-21T11:28:34.601Z,46.95
2023-03-21T11:31:34.660Z,47.7
2023-03-21T11:34:34.162Z,47.51
2023-03-21T11:36:34.888Z,47.94
2023-03-21T11:39:34.715Z,46.81
2023-03-21T11:42:34.063Z,47.89
2023-03-21T11:45:34.139Z,46.6
2023-03-21T11:48:34.669Z,46.49
2023-03-21T11:51:34.908Z,46.56
2023-03-21T11:54:34.078Z,46.68
2023-03-21T11:57:34.022Z,46.42
2023-03-21T11:59:34.428Z,45.88
2023-03-21T12:02:34.045Z,46.33
2023-03-21T12:05:34.321Z,46.62
2023-03-21T12:07:34.303Z,45.99
2023-03-21T12:10:34.217Z,45.24
2023-03-21T12:13:34.109Z,45.13
2023-03-21T12:16:34.510Z,44.9
2023-03-21T12:19:34.062Z,45.21
2023-03-21T12:21:34.080Z,44.97
2023-03-21T12:24:34.128Z,45.2
2023-03-21T12:26:35.068Z,45.06
2023-03-21T12:29:34.521Z,45.39
2023-03-21T12:32:35.653Z,45.38
2023-03-21T12:34:34.907Z,45.45
2023-03-21T12:37:34.320Z,45.54
2023-03-21T12:39:34.616Z,45.4
2023-03-21T12:42:34.674Z,45.34
2023-03-21T12:45:44.184Z,45.48
2023-03-21T12:47:34.650Z,45.24
2023-03-21T12:49:34.837Z,45.29
2023-03-21T12:51:35.068Z,45.33
2023-03-21T12:54:34.095Z,45.46
2023-03-21T12:57:34.944Z,45.28
2023-03-21T12:59:34.637Z,45.52
2023-03-21T13:02:34.736Z,45.49
2023-03-21T13:05:34.071Z,45.7
2023-03-21T13:07:34.078Z,45.49
2023-03-21T13:09:37.518Z,45.6
2023-03-21T13:12:34.201Z,45.6
2023-03-21T13:14:34.109Z,46.04
2023-03-21T13:17:34.705Z,45.92
2023-03-21T13:20:34.094Z,46.19
2023-03-21T13:22:34.767Z,45.91
2023-03-21T13:25:34.147Z,46.07
2023-03-21T13:27:34.787Z,46.12
2023-03-21T13:30:35.100Z,45.94
2023-03-21T13:33:34.187Z,46.34
2023-03-21T13:36:34.863Z,46.59
2023-03-21T13:38:34.926Z,46.87
2023-03-21T13:41:34.145Z,47.29
2023-03-21T13:44:34.149Z,48.06
2023-03-21T13:47:34.689Z,47.95
2023-03-21T13:49:34.730Z,48.58
2023-03-21T13:51:34.893Z,48.08
2023-03-21T13:54:34.132Z,48.82
2023-03-21T13:57:34.065Z,49
2023-03-21T13:59:35.284Z,48.65
2023-03-21T14:02:34.659Z,49.6
2023-03-21T14:05:34.262Z,49.67
2023-03-21T14:07:35.876Z,50.08
2023-03-21T14:10:34.079Z,49.63
2023-03-21T14:12:34.077Z,50.84
2023-03-21T14:14:34.400Z,51.08
2023-03-21T14:17:34.580Z,50.68
2023-03-21T14:19:34.580Z,51.55
2023-03-21T14:22:34.105Z,51.43
2023-03-21T14:24:34.874Z,52.69
2023-03-21T14:27:34.095Z,51.52
2023-03-21T14:30:34.188Z,53.54
2023-03-21T14:32:34.089Z,51.85
2023-03-21T14:34:34.822Z,51.53
2023-03-21T14:37:34.509Z,52.92
2023-03-21T14:39:34.596Z,52.53
2023-03-21T14:42:34.509Z,52.63
2023-03-21T14:45:34.553Z,53.13
2023-03-21T14:47:34.282Z,52.07
2023-03-21T14:50:34.418Z,52.13
2023-03-21T14:53:34.195Z,52.56
2023-03-21T14:55:34.315Z,52.73
2023-03-21T14:57:34.382Z,53.14
2023-03-21T15:03:34.166Z,54.04
2023-03-21T15:05:34.480Z,53
2023-03-21T15:07:34.563Z,53.69
2023-03-21T15:10:34.379Z,52.92
2023-03-21T15:12:34.474Z,54.2
2023-03-21T15:14:34.807Z,54.12
2023-03-21T15:16:34.852Z,53.65
2023-03-21T15:19:34.091Z,52.99
2023-03-21T15:22:34.090Z,53.67
2023-03-21T15:24:34.132Z,52.53
2023-03-21T15:27:34.102Z,53.76
2023-03-21T15:29:34.129Z,53.5
2023-03-21T15:31:34.200Z,53.74
2023-03-21T15:34:34.081Z,53.47
2023-03-21T15:36:34.582Z,53.77
2023-03-21T15:39:34.303Z,53.5
2023-03-21T15:41:34.627Z,52.11
2023-03-21T15:44:34.193Z,53.65
2023-03-21T15:47:34.672Z,53.49
2023-03-21T15:49:34.709Z,53.74
2023-03-21T15:52:34.104Z,54.08
2023-03-21T15:55:34.156Z,53.12
2023-03-21T15:57:34.255Z,54.42
2023-03-21T15:59:34.758Z,54.84
2023-03-21T16:02:34.089Z,55.18
2023-03-21T16:04:34.753Z,55.01
2023-03-21T16:07:34.181Z,54.73
2023-03-21T16:09:34.728Z,53.82
2023-03-21T16:12:34.427Z,54.05
2023-03-21T16:15:34.086Z,55.33
2023-03-21T16:17:36.034Z,55.14
2023-03-21T16:20:34.291Z,53.94
2023-03-21T16:23:34.094Z,54.34
2023-03-21T16:25:34.669Z,54.27
2023-03-21T16:28:34.411Z,53.97
2023-03-21T16:30:34.608Z,53.14
2023-03-21T16:32:35.154Z,53.07
2023-03-21T16:35:34.088Z,52.58
2023-03-21T16:37:34.206Z,52.42
2023-03-21T16:39:34.588Z,52.26
2023-03-21T16:42:34.123Z,52.06
2023-03-21T16:45:34.151Z,52.43
2023-03-21T16:47:34.628Z,52.5
2023-03-21T16:49:34.668Z,52.19
2023-03-21T16:52:34.128Z,52.44
2023-03-21T16:55:34.125Z,52.76
2023-03-21T16:58:34.174Z,52.55
2023-03-21T17:00:34.133Z,52.77
2023-03-21T17:03:34.720Z,52.77
2023-03-21T17:06:34.096Z,51.62
2023-03-21T17:08:34.203Z,52.32
2023-03-21T17:11:34.853Z,51.67
2023-03-21T17:14:34.123Z,51.22
2023-03-21T17:16:34.441Z,51.35
2023-03-21T17:20:34.103Z,52.12
2023-03-21T17:22:34.687Z,52.15
2023-03-21T17:25:34.139Z,52.6
2023-03-21T17:28:34.436Z,52.07
2023-03-21T17:31:34.956Z,52.56
2023-03-21T17:34:34.087Z,52.92
2023-03-21T17:36:35.141Z,53.01
2023-03-21T17:39:34.290Z,53.75
2023-03-21T17:42:34.114Z,53.17
2023-03-21T17:44:34.128Z,53.16
2023-03-21T17:46:34.476Z,52.9
2023-03-21T17:49:34.106Z,52.83
2023-03-21T17:51:34.422Z,53.01
2023-03-21T17:54:34.787Z,52.59
2023-03-21T17:57:34.135Z,51.92
2023-03-21T17:59:34.299Z,52.38
2023-03-21T18:02:34.110Z,52.7
2023-03-21T18:04:34.375Z,52.11
2023-03-21T18:08:04.422Z,52.43
2023-03-21T18:10:34.654Z,52.78
2023-03-21T18:13:34.669Z,53.04
2023-03-21T18:16:34.525Z,52.89
2023-03-21T18:18:34.605Z,52.86
2023-03-21T18:20:50.734Z,52.83
2023-03-21T18:22:34.892Z,52.66
2023-03-21T18:25:34.476Z,52.95
2023-03-21T18:28:34.456Z,52.8
2023-03-21T18:31:34.902Z,53.04
2023-03-21T18:33:34.875Z,52.57
2023-03-21T18:36:34.560Z,52.62
2023-03-21T18:39:34.457Z,52.67
2023-03-21T18:42:34.224Z,53.03
2023-03-21T18:44:34.350Z,53
2023-03-21T18:47:34.487Z,52.96
2023-03-21T18:50:12.962Z,53.15
2023-03-21T18:52:34.157Z,53.06
2023-03-21T18:55:45.273Z,53
2023-03-21T18:57:37.288Z,52.79
2023-03-21T19:00:34.206Z,52.85
2023-03-21T19:02:41.704Z,52.9
2023-03-21T19:05:34.538Z,52.94
2023-03-21T19:08:34.101Z,53.26
2023-03-21T19:10:34.334Z,53.38
2023-03-21T19:12:34.566Z,53.01
2023-03-21T19:15:34.934Z,53.21
2023-03-21T19:18:53.312Z,53.33
2023-03-21T19:20:34.216Z,53.24
2023-03-21T19:22:34.133Z,53.19
2023-03-21T19:24:34.856Z,53.31
2023-03-21T19:27:34.103Z,53.18
2023-03-21T19:30:34.877Z,53.22
2023-03-21T19:33:35.005Z,53.25
2023-03-21T19:36:34.632Z,53.16
2023-03-21T19:38:49.991Z,53.2
2023-03-21T19:41:34.891Z,53.18
2023-03-21T19:44:34.100Z,53.18
2023-03-21T19:47:34.091Z,53.11
2023-03-21T19:49:55.737Z,53.07
2023-03-21T19:51:35.083Z,52.99
2023-03-21T19:54:34.198Z,53.19
2023-03-21T19:57:35.250Z,53.27
2023-03-21T20:00:34.210Z,53.36
2023-03-21T20:03:34.287Z,53.38
2023-03-21T20:05:35.604Z,53.26
2023-03-21T20:08:53.189Z,53.29
2023-03-21T20:10:34.140Z,53.37
2023-03-21T20:13:34.108Z,53.32
2023-03-21T20:15:42.668Z,53.38
2023-03-21T20:18:34.231Z,53.4
2023-03-21T20:21:44.305Z,53.52
2023-03-21T20:23:34.774Z,53.48
2023-03-21T20:26:34.135Z,53.23
2023-03-21T20:28:34.565Z,53.3
2023-03-21T20:30:34.828Z,53.63
2023-03-21T20:32:34.727Z,53.46
2023-03-21T20:36:19.681Z,53.47
2023-03-21T20:38:34.929Z,53.92
2023-03-21T20:41:34.151Z,53.78
2023-03-21T20:46:37.097Z,54.4
2023-03-21T20:49:34.113Z,54.29
2023-03-21T20:54:35.413Z,54.04
2023-03-21T20:57:34.353Z,54.1
2023-03-21T21:00:34.326Z,54.6
2023-03-21T21:03:34.114Z,54.45
2023-03-21T21:05:35.250Z,54.32
2023-03-21T21:08:34.582Z,54.03
2023-03-21T21:12:05.958Z,53.86
2023-03-21T21:13:34.840Z,53.77
2023-03-21T21:16:34.135Z,53.85
2023-03-21T21:19:34.154Z,53.7
2023-03-21T21:22:34.175Z,53.71
2023-03-21T21:25:34.193Z,53.57
2023-03-21T21:27:34.140Z,53.54
2023-03-21T21:30:35.002Z,54.15
2023-03-21T21:32:34.760Z,53.66
2023-03-21T21:35:34.680Z,53.75
2023-03-21T21:38:34.547Z,53.72
2023-03-21T21:41:34.754Z,53.63
2023-03-21T21:43:34.162Z,53.6
2023-03-21T21:48:34.880Z,53.4
2023-03-21T21:51:35.539Z,53.27
2023-03-21T21:53:34.742Z,53.46
2023-03-21T21:56:35.075Z,53.38
2023-03-21T21:58:34.168Z,53.3
2023-03-21T22:00:34.723Z,53.37
2023-03-21T22:03:34.109Z,53.45
2023-03-21T22:05:35.611Z,53.71
2023-03-21T22:07:34.642Z,53.45
2023-03-21T22:09:34.664Z,53.4
2023-03-21T22:12:34.716Z,53.82
2023-03-21T22:15:34.889Z,54.35
2023-03-21T22:17:34.708Z,54.13
2023-03-21T22:19:34.149Z,53.85
2023-03-21T22:21:34.289Z,53.68
2023-03-21T22:24:34.868Z,53.58
2023-03-21T22:27:34.301Z,53.42
2023-03-21T22:29:34.733Z,53.44
2023-03-21T22:32:34.157Z,53.42
2023-03-21T22:34:34.225Z,53.4
2023-03-21T22:37:34.239Z,53.26
2023-03-21T22:40:34.289Z,53.29
2023-03-21T22:43:34.301Z,53.14
2023-03-21T22:46:34.120Z,53.02
2023-03-21T22:48:34.174Z,53
2023-03-21T22:51:34.117Z,53.04
2023-03-21T22:53:34.126Z,53.19
2023-03-21T22:55:34.452Z,53.19
2023-03-21T22:58:35.341Z,53.23
2023-03-21T23:01:37.003Z,53.14
2023-03-21T23:03:34.915Z,53.19
2023-03-21T23:05:35.238Z,53.3
2023-03-21T23:07:35.016Z,53.26
2023-03-21T23:10:34.701Z,53.23
2023-03-21T23:12:34.956Z,53.29
2023-03-21T23:15:34.177Z,53.25
2023-03-21T23:17:34.369Z,53.27
2023-03-21T23:20:34.967Z,53.13
2023-03-21T23:23:35.142Z,53.43
2023-03-21T23:26:34.150Z,53.43
2023-03-21T23:29:34.125Z,53.46
2023-03-21T23:32:34.810Z,53.52
2023-03-21T23:35:34.497Z,53.37
2023-03-21T23:37:34.733Z,53.65
2023-03-21T23:40:34.127Z,53.47
2023-03-21T23:42:34.191Z,53.5
2023-03-21T23:44:34.466Z,53.51
2023-03-21T23:47:34.481Z,53.52
2023-03-21T23:49:34.805Z,53.58
2023-03-21T23:52:34.691Z,53.8
2023-03-21T23:54:34.797Z,53.79
2023-03-21T23:57:34.432Z,53.87
2023-03-21T23:59:34.892Z,53.94
